createdAt,value
2018-09-02T00:01:49.194Z,101952.55
2018-09-02T00:04:17.698Z,101952.56
2018-09-02T00:06:46.151Z,101946.54
2018-09-02T00:09:14.613Z,101943.89
2018-09-02T00:11:43.056Z,101946.52
2018-09-02T00:14:11.533Z,101943.03
2018-09-02T00:16:40.068Z,101941.30
2018-09-02T00:19:08.504Z,101939.14
2018-09-02T00:21:36.928Z,101932.68
2018-09-02T00:24:05.541Z,101926.66
2018-09-02T00:26:33.963Z,101929.66
2018-09-02T00:29:02.391Z,101928.80
2018-09-02T00:31:30.789Z,101918.92
2018-09-02T00:33:59.294Z,101921.91
2018-09-02T00:36:27.633Z,101923.17
2018-09-02T00:38:56.122Z,101927.02
2018-09-02T00:41:24.534Z,101918.85
2018-09-02T00:43:52.942Z,101924.42
2018-09-02T00:46:21.354Z,101916.68
2018-09-02T00:48:49.757Z,101919.25
2018-09-02T00:51:19.178Z,101920.55
2018-09-02T00:53:47.608Z,101918.37
2018-09-02T00:56:16.052Z,101917.92
2018-09-02T00:58:44.444Z,101916.16
2018-09-02T01:01:12.873Z,101914.48
2018-09-02T01:03:41.522Z,101917.45
2018-09-02T01:06:09.925Z,101914.01
2018-09-02T01:08:38.436Z,101919.99
2018-09-02T01:11:06.843Z,101919.11
2018-09-02T01:13:35.300Z,101922.09
2018-09-02T01:16:03.699Z,101921.22
2018-09-02T01:18:32.113Z,101919.91
2018-09-02T01:21:00.508Z,101916.45
2018-09-02T01:23:28.922Z,101919.43
2018-09-02T01:25:57.371Z,101923.30
2018-09-02T01:28:25.761Z,101889.90
2018-09-02T01:30:54.192Z,101925.41
2018-09-02T01:33:22.588Z,101929.28
2018-09-02T01:35:51.028Z,101938.64
2018-09-02T01:38:19.433Z,101936.91
2018-09-02T01:40:47.869Z,101929.58
2018-09-02T01:43:16.296Z,101935.60
2018-09-02T01:45:44.701Z,101933.42
2018-09-02T01:48:13.126Z,101936.02
2018-09-02T01:50:41.495Z,101933.84
2018-09-02T01:53:09.923Z,101932.52
2018-09-02T01:55:38.363Z,101929.91
2018-09-02T01:58:06.832Z,101924.30
2018-09-02T02:00:35.225Z,101925.17
2018-09-02T02:03:03.624Z,101924.73
2018-09-02T02:05:32.080Z,101922.94
2018-09-02T02:08:00.489Z,101921.21
2018-09-02T02:10:28.891Z,101919.90
2018-09-02T02:12:57.324Z,101922.88
2018-09-02T02:15:25.725Z,101924.55
2018-09-02T02:17:54.147Z,101916.81
2018-09-02T02:20:22.566Z,101912.51
2018-09-02T02:22:51.041Z,101918.48
2018-09-02T02:25:19.580Z,101909.45
2018-09-02T02:27:47.991Z,101910.73
2018-09-02T02:30:16.464Z,101909.42
2018-09-02T02:32:44.853Z,101909.37
2018-09-02T02:35:13.287Z,101908.48
2018-09-02T02:37:41.858Z,101900.31
2018-09-02T02:40:10.301Z,101902.05
2018-09-02T02:42:38.754Z,101897.31
2018-09-02T02:45:07.259Z,101897.31
2018-09-02T02:47:36.708Z,101891.72
2018-09-02T02:50:05.360Z,101898.14
2018-09-02T02:52:38.974Z,101896.41
2018-09-02T02:55:07.660Z,101893.39
2018-09-02T02:57:36.072Z,101891.66
2018-09-02T03:00:05.002Z,101886.06
2018-09-02T03:02:33.464Z,101889.91
2018-09-02T03:05:01.860Z,101889.88
2018-09-02T03:07:30.300Z,101892.03
2018-09-02T03:09:58.726Z,101886.91
2018-09-02T03:12:27.245Z,101881.31
2018-09-02T03:14:55.667Z,101883.02
2018-09-02T03:17:25.075Z,101880.45
2018-09-02T03:19:53.517Z,101880.45
2018-09-02T03:22:21.977Z,101877.85
2018-09-02T03:24:50.356Z,101876.56
2018-09-02T03:27:18.794Z,101872.27
2018-09-02T03:29:47.225Z,101876.89
2018-09-02T03:32:15.661Z,101875.18
2018-09-02T03:34:44.637Z,101872.58
2018-09-02T03:37:13.574Z,101868.72
2018-09-02T03:39:42.046Z,101866.55
2018-09-02T03:42:10.439Z,101867.83
2018-09-02T03:44:38.970Z,101869.98
2018-09-02T03:47:07.611Z,101860.06
2018-09-02T03:49:35.981Z,101870.34
2018-09-02T03:52:04.417Z,101869.01
2018-09-02T03:54:32.825Z,101868.14
2018-09-02T03:57:01.256Z,101866.44
2018-09-02T03:59:31.031Z,101868.98
2018-09-02T04:02:00.575Z,101870.25
2018-09-02T04:04:29.713Z,101863.73
2018-09-02T04:06:58.192Z,101870.59
2018-09-02T04:09:26.653Z,101861.14
2018-09-02T04:11:55.085Z,101863.71
2018-09-02T04:14:23.505Z,101862.83
2018-09-02T04:16:51.961Z,101857.63
2018-09-02T04:19:20.400Z,101855.86
2018-09-02T04:21:48.769Z,101855.86
2018-09-02T04:24:17.199Z,101854.98
2018-09-02T04:26:45.627Z,101853.27
2018-09-02T04:29:14.073Z,101850.25
2018-09-02T04:31:42.541Z,101850.67
2018-09-02T04:34:10.924Z,101847.21
2018-09-02T04:36:39.392Z,101848.94
2018-09-02T04:39:09.108Z,101851.12
2018-09-02T04:41:37.958Z,101850.67
2018-09-02T04:44:06.496Z,101851.95
2018-09-02T04:46:34.962Z,101846.37
2018-09-02T04:49:03.384Z,101852.36
2018-09-02T04:51:31.889Z,101852.36
2018-09-02T04:54:00.277Z,101855.77
2018-09-02T04:56:28.705Z,101849.70
2018-09-02T04:58:57.245Z,101849.20
2018-09-02T05:01:25.654Z,101847.43
2018-09-02T05:03:54.089Z,101848.64
2018-09-02T05:06:22.540Z,101844.36
2018-09-02T05:08:50.968Z,101846.94
2018-09-02T05:11:19.391Z,101847.43
2018-09-02T05:13:47.852Z,101843.13
2018-09-02T05:16:16.293Z,101845.25
2018-09-02T05:18:44.681Z,101854.73
2018-09-02T05:21:13.116Z,101852.13
2018-09-02T05:23:41.524Z,101849.11
2018-09-02T05:26:10.052Z,101853.00
2018-09-02T05:28:38.476Z,101850.84
2018-09-02T05:31:07.144Z,101851.31
2018-09-02T05:33:35.613Z,101854.80
2018-09-02T05:36:04.068Z,101857.81
2018-09-02T05:38:32.481Z,101858.27
2018-09-02T05:41:00.924Z,101859.99
2018-09-02T05:43:29.321Z,101862.56
2018-09-02T05:45:57.882Z,101866.92
2018-09-02T05:48:26.292Z,101863.02
2018-09-02T05:50:54.701Z,101863.02
2018-09-02T05:53:23.200Z,101866.92
2018-09-02T05:55:52.051Z,101871.23
2018-09-02T05:58:20.481Z,101872.94
2018-09-02T06:00:48.913Z,101872.08
2018-09-02T06:03:17.328Z,101870.28
2018-09-02T06:05:45.774Z,101877.16
2018-09-02T06:08:14.181Z,101869.92
2018-09-02T06:10:42.696Z,101872.08
2018-09-02T06:13:11.123Z,101872.09
2018-09-02T06:15:39.574Z,101871.28
2018-09-02T06:18:08.046Z,101869.16
2018-09-02T06:20:36.460Z,101877.82
2018-09-02T06:23:04.941Z,101878.75
2018-09-02T06:25:33.392Z,101880.97
2018-09-02T06:28:01.804Z,101879.28
2018-09-02T06:30:30.237Z,101879.77
2018-09-02T06:32:58.800Z,101880.63
2018-09-02T06:35:27.175Z,101879.41
2018-09-02T06:37:55.580Z,101885.90
2018-09-02T06:40:24.024Z,101880.75
2018-09-02T06:42:53.157Z,101877.83
2018-09-02T06:45:21.720Z,101883.45
2018-09-02T06:47:50.303Z,101877.89
2018-09-02T06:50:18.691Z,101878.81
2018-09-02T06:52:47.180Z,101879.72
2018-09-02T06:55:15.651Z,101876.76
2018-09-02T06:57:45.063Z,101878.56
2018-09-02T07:00:13.471Z,101873.92
2018-09-02T07:02:42.183Z,101878.71
2018-09-02T07:05:10.575Z,101879.23
2018-09-02T07:07:39.006Z,101872.83
2018-09-02T07:10:07.520Z,101866.88
2018-09-02T07:12:35.909Z,101865.22
2018-09-02T07:15:04.353Z,101863.52
2018-09-02T07:17:32.740Z,101867.39
2018-09-02T07:20:01.188Z,101873.91
2018-09-02T07:22:29.552Z,101871.78
2018-09-02T07:24:57.965Z,101866.65
2018-09-02T07:27:26.396Z,101873.77
2018-09-02T07:29:54.864Z,101866.52
2018-09-02T07:32:23.271Z,101864.96
2018-09-02T07:34:51.721Z,101869.09
2018-09-02T07:37:20.180Z,101869.64
2018-09-02T07:39:48.700Z,101866.58
2018-09-02T07:42:17.081Z,101860.52
2018-09-02T07:44:45.561Z,101861.80
2018-09-02T07:47:14.146Z,101861.34
2018-09-02T07:49:42.592Z,101861.36
2018-09-02T07:52:10.985Z,101859.77
2018-09-02T07:54:40.855Z,101856.44
2018-09-02T07:57:09.109Z,101857.30
2018-09-02T07:59:37.515Z,101851.78
2018-09-02T08:02:05.980Z,101853.97
2018-09-02T08:04:35.369Z,101847.64
2018-09-02T08:07:03.937Z,101855.45
2018-09-02T08:09:32.423Z,101851.18
2018-09-02T08:12:01.176Z,101851.61
2018-09-02T08:14:29.608Z,101846.96
2018-09-02T08:16:58.156Z,101844.84
2018-09-02T08:19:26.619Z,101848.28
2018-09-02T08:21:55.250Z,101849.71
2018-09-02T08:24:23.659Z,101830.77
2018-09-02T08:26:52.090Z,101844.63
2018-09-02T08:29:20.616Z,101838.65
2018-09-02T08:31:49.226Z,101837.50
2018-09-02T08:34:17.613Z,101827.70
2018-09-02T08:36:46.545Z,101835.05
2018-09-02T08:39:15.101Z,101827.79
2018-09-02T08:41:43.573Z,101823.05
2018-09-02T08:44:12.048Z,101824.79
2018-09-02T08:46:40.501Z,101823.55
2018-09-02T08:49:09.027Z,101822.75
2018-09-02T08:51:37.474Z,101829.22
2018-09-02T08:54:05.960Z,101820.59
2018-09-02T08:56:34.397Z,101821.46
2018-09-02T08:59:02.782Z,101810.30
2018-09-02T09:01:31.306Z,101815.05
2018-09-02T09:03:59.738Z,101819.00
2018-09-02T09:06:28.280Z,101810.80
2018-09-02T09:08:57.193Z,101806.06
2018-09-02T09:11:25.703Z,101814.69
2018-09-02T09:13:54.635Z,101803.07
2018-09-02T09:16:23.132Z,101803.93
2018-09-02T09:18:51.580Z,101797.89
2018-09-02T09:21:20.005Z,101805.66
2018-09-02T09:23:48.397Z,101803.50
2018-09-02T09:26:16.824Z,101794.86
2018-09-02T09:28:46.450Z,101797.47
2018-09-02T09:31:15.644Z,101794.45
2018-09-02T09:33:44.110Z,101791.86
2018-09-02T09:36:12.597Z,101787.09
2018-09-02T09:38:41.058Z,101794.00
2018-09-02T09:41:09.581Z,101791.02
2018-09-02T09:43:38.037Z,101790.56
2018-09-02T09:46:06.509Z,101788.41
2018-09-02T09:48:34.915Z,101784.95
2018-09-02T09:51:03.340Z,101778.91
2018-09-02T09:53:31.764Z,101785.34
2018-09-02T09:56:00.293Z,101784.91
2018-09-02T09:58:28.721Z,101771.95
2018-09-02T10:00:57.221Z,101784.03
2018-09-02T10:03:25.669Z,101789.22
2018-09-02T10:05:54.115Z,101782.72
2018-09-02T10:08:22.572Z,101772.37
2018-09-02T10:10:51.025Z,101771.94
2018-09-02T10:13:19.503Z,101770.62
2018-09-02T10:15:47.965Z,101762.42
2018-09-02T10:18:16.501Z,101766.73
2018-09-02T10:20:45.416Z,101768.44
2018-09-02T10:23:13.820Z,101764.98
2018-09-02T10:25:42.905Z,101767.59
2018-09-02T10:28:11.416Z,101761.09
2018-09-02T10:30:39.859Z,101766.26
2018-09-02T10:33:08.361Z,101763.66
2018-09-02T10:35:36.819Z,101762.78
2018-09-02T10:38:07.750Z,101748.52
2018-09-02T10:40:36.178Z,101751.14
2018-09-02T10:43:05.577Z,101751.53
2018-09-02T10:45:34.093Z,101751.02
2018-09-02T10:48:02.486Z,101513.59
2018-09-02T10:50:30.896Z,101742.33
2018-09-02T10:52:59.301Z,101739.77
2018-09-02T10:55:27.720Z,101736.70
2018-09-02T10:57:56.141Z,101733.20
2018-09-02T11:00:24.625Z,101730.60
2018-09-02T11:02:53.032Z,101740.12
2018-09-02T11:05:21.456Z,101734.94
2018-09-02T11:07:50.423Z,101729.73
2018-09-02T11:10:18.827Z,101733.20
2018-09-02T11:12:47.625Z,101724.11
2018-09-02T11:15:16.148Z,101723.69
2018-09-02T11:17:44.725Z,101716.67
2018-09-02T11:20:13.751Z,101720.55
2018-09-02T11:22:42.225Z,101717.47
2018-09-02T11:25:10.681Z,101708.80
2018-09-02T11:27:39.107Z,101709.20
2018-09-02T11:30:08.180Z,101704.86
2018-09-02T11:32:36.665Z,101701.30
2018-09-02T11:35:05.166Z,101698.68
2018-09-02T11:37:33.645Z,101701.55
2018-09-02T11:40:02.167Z,101704.21
2018-09-02T11:42:30.640Z,101695.51
2018-09-02T11:44:59.053Z,101689.78
2018-09-02T11:47:27.487Z,101686.84
2018-09-02T11:49:56.015Z,101688.48
2018-09-02T11:52:24.456Z,101663.00
2018-09-02T11:54:52.904Z,101681.92
2018-09-02T11:57:21.980Z,101683.67
2018-09-02T11:59:50.383Z,101678.40
2018-09-02T12:02:18.786Z,101680.92
2018-09-02T12:04:48.006Z,101670.10
2018-09-02T12:07:16.453Z,101664.41
2018-09-02T12:09:44.889Z,101673.41
2018-09-02T12:12:13.588Z,101665.50
2018-09-02T12:14:42.105Z,101659.28
2018-09-02T12:17:10.597Z,101654.32
2018-09-02T12:19:39.082Z,101654.46
2018-09-02T12:22:07.565Z,101649.97
2018-09-02T12:24:35.963Z,101646.17
2018-09-02T12:27:05.434Z,101647.33
2018-09-02T12:29:33.848Z,101651.64
2018-09-02T12:32:02.401Z,101651.09
2018-09-02T12:34:30.808Z,101644.31
2018-09-02T12:36:59.278Z,101639.75
2018-09-02T12:39:27.682Z,101638.10
2018-09-02T12:41:56.097Z,101633.22
2018-09-02T12:44:24.519Z,101633.46
2018-09-02T12:46:53.669Z,101622.91
2018-09-02T12:49:22.125Z,101618.02
2018-09-02T12:51:50.590Z,101618.24
2018-09-02T12:54:19.090Z,101619.14
2018-09-02T12:56:48.851Z,101614.09
2018-09-02T12:59:17.252Z,101612.98
2018-09-02T13:01:45.668Z,101621.20
2018-09-02T13:04:14.129Z,101614.09
2018-09-02T13:06:42.614Z,101610.67
2018-09-02T13:09:11.080Z,101604.83
2018-09-02T13:11:39.491Z,101606.48
2018-09-02T13:14:07.920Z,101605.87
2018-09-02T13:16:36.372Z,101603.23
2018-09-02T13:19:04.996Z,101601.88
2018-09-02T13:21:33.352Z,101595.12
2018-09-02T13:24:01.826Z,101598.64
2018-09-02T13:26:31.452Z,101596.84
2018-09-02T13:29:00.261Z,101593.55
2018-09-02T13:31:28.725Z,101596.69
2018-09-02T13:33:57.122Z,101579.59
2018-09-02T13:36:25.635Z,101579.88
2018-09-02T13:38:54.068Z,101567.60
2018-09-02T13:41:22.549Z,101570.55
2018-09-02T13:43:51.143Z,101569.28
2018-09-02T13:46:19.609Z,101565.19
2018-09-02T13:48:48.074Z,101570.67
2018-09-02T13:51:16.533Z,101559.36
2018-09-02T13:53:44.934Z,101562.08
2018-09-02T13:56:13.316Z,101556.52
2018-09-02T13:58:41.758Z,101563.31
2018-09-02T14:01:10.238Z,101569.59
2018-09-02T14:03:38.592Z,101551.03
2018-09-02T14:06:07.066Z,101554.58
2018-09-02T14:08:35.625Z,101550.22
2018-09-02T14:11:04.132Z,101546.34
2018-09-02T14:13:32.520Z,101543.45
2018-09-02T14:16:01.604Z,101543.08
2018-09-02T14:18:30.075Z,101541.09
2018-09-02T14:20:58.481Z,101536.44
2018-09-02T14:23:26.928Z,101537.08
2018-09-02T14:25:55.824Z,101532.54
2018-09-02T14:28:24.277Z,101518.61
2018-09-02T14:30:52.740Z,101523.14
2018-09-02T14:33:21.596Z,101514.02
2018-09-02T14:35:50.008Z,101521.20
2018-09-02T14:38:18.421Z,101521.04
2018-09-02T14:40:46.884Z,101519.70
2018-09-02T14:43:15.342Z,101509.34
2018-09-02T14:45:44.858Z,101512.85
2018-09-02T14:48:13.296Z,101505.47
2018-09-02T14:50:41.730Z,101510.84
2018-09-02T14:53:10.129Z,101505.18
2018-09-02T14:55:38.588Z,101504.66
2018-09-02T14:58:07.109Z,101506.98
2018-09-02T15:00:36.242Z,101504.30
2018-09-02T15:03:04.770Z,101499.19
2018-09-02T15:05:33.219Z,101499.23
2018-09-02T15:08:01.759Z,101505.34
2018-09-02T15:10:30.240Z,101504.45
2018-09-02T15:12:58.783Z,101502.37
2018-09-02T15:15:27.264Z,101500.33
2018-09-02T15:17:55.708Z,101489.58
2018-09-02T15:20:24.165Z,101493.28
2018-09-02T15:22:52.580Z,101483.79
2018-09-02T15:25:21.020Z,101484.84
2018-09-02T15:27:49.460Z,101484.84
2018-09-02T15:30:17.892Z,101480.97
2018-09-02T15:32:46.276Z,101477.58
2018-09-02T15:35:14.673Z,101476.69
2018-09-02T15:37:43.154Z,101473.19
2018-09-02T15:40:12.460Z,101468.38
2018-09-02T15:42:40.868Z,101475.23
2018-09-02T15:45:10.248Z,101471.16
2018-09-02T15:47:38.692Z,101460.80
2018-09-02T15:50:07.757Z,101464.80
2018-09-02T15:52:36.549Z,101461.98
2018-09-02T15:55:05.181Z,101460.95
2018-09-02T15:57:33.688Z,101457.09
2018-09-02T16:00:02.140Z,101466.63
2018-09-02T16:02:30.542Z,101461.81
2018-09-02T16:04:58.982Z,101460.43
2018-09-02T16:07:29.669Z,101459.08
2018-09-02T16:09:58.662Z,101464.09
2018-09-02T16:12:28.406Z,101457.66
2018-09-02T16:14:57.994Z,101463.72
2018-09-02T16:17:26.773Z,101471.44
2018-09-02T16:19:55.236Z,101462.63
2018-09-02T16:22:23.843Z,101463.69
2018-09-02T16:24:52.336Z,101464.26
2018-09-02T16:27:23.032Z,101457.45
2018-09-02T16:29:51.691Z,101457.78
2018-09-02T16:32:20.129Z,101454.44
2018-09-02T16:34:48.573Z,101449.38
2018-09-02T16:37:17.463Z,101451.75
2018-09-02T16:39:45.912Z,101446.57
2018-09-02T16:42:14.410Z,101452.88
2018-09-02T16:44:42.856Z,101448.97
2018-09-02T16:47:11.370Z,101453.12
2018-09-02T16:49:39.841Z,101440.23
2018-09-02T16:52:08.302Z,101443.00
2018-09-02T16:54:36.788Z,101403.53
2018-09-02T16:57:05.979Z,101437.63
2018-09-02T16:59:34.442Z,101433.61
2018-09-02T17:02:02.917Z,101433.78
2018-09-02T17:04:34.092Z,101440.55
2018-09-02T17:07:03.412Z,101439.90
2018-09-02T17:09:32.596Z,101439.24
2018-09-02T17:12:01.179Z,101441.93
2018-09-02T17:14:29.730Z,101432.52
2018-09-02T17:16:58.173Z,101427.80
2018-09-02T17:19:29.301Z,101434.83
2018-09-02T17:21:57.788Z,101436.29
2018-09-02T17:24:26.201Z,101434.09
2018-09-02T17:26:54.662Z,101436.70
2018-09-02T17:29:23.073Z,101435.51
2018-09-02T17:31:51.539Z,101433.91
2018-09-02T17:34:19.985Z,101431.75
2018-09-02T17:36:49.310Z,101434.80
2018-09-02T17:39:17.765Z,101429.19
2018-09-02T17:41:46.221Z,101427.92
2018-09-02T17:44:14.680Z,101429.22
2018-09-02T17:46:43.096Z,101432.34
2018-09-02T17:49:11.524Z,101436.40
2018-09-02T17:51:40.909Z,101439.52
2018-09-02T17:54:09.444Z,101431.38
2018-09-02T17:56:37.951Z,101427.98
2018-09-02T17:59:06.426Z,101434.59
2018-09-02T18:01:34.965Z,101430.80
2018-09-02T18:04:03.403Z,101435.19
2018-09-02T18:06:31.879Z,101431.41
2018-09-02T18:09:00.781Z,101433.67
2018-09-02T18:11:29.905Z,101439.36
2018-09-02T18:13:58.288Z,101440.70
2018-09-02T18:16:26.768Z,101442.95
2018-09-02T18:18:55.617Z,101443.44
2018-09-02T18:21:24.183Z,101443.50
2018-09-02T18:23:52.658Z,101443.59
2018-09-02T18:26:22.012Z,101448.83
2018-09-02T18:28:51.057Z,101447.63
2018-09-02T18:31:19.573Z,101450.73
2018-09-02T18:33:48.051Z,101452.09
2018-09-02T18:36:16.933Z,101455.17
2018-09-02T18:38:45.704Z,101456.06
2018-09-02T18:41:14.243Z,101461.73
2018-09-02T18:43:42.947Z,101466.12
2018-09-02T18:46:12.183Z,101469.20
2018-09-02T18:48:40.985Z,101470.52
2018-09-02T18:51:09.549Z,101467.09
2018-09-02T18:53:38.703Z,101468.45
2018-09-02T18:56:07.285Z,101471.53
2018-09-02T18:58:36.101Z,101472.41
2018-09-02T19:01:04.783Z,101474.19
2018-09-02T19:03:33.269Z,101475.95
2018-09-02T19:06:01.989Z,101474.71
2018-09-02T19:08:30.504Z,101471.73
2018-09-02T19:10:58.909Z,101477.81
2018-09-02T19:13:27.399Z,101467.00
2018-09-02T19:15:55.868Z,101443.48
2018-09-02T19:18:24.637Z,101478.75
2018-09-02T19:20:53.376Z,101474.44
2018-09-02T19:23:21.937Z,101475.35
2018-09-02T19:25:50.477Z,101480.14
2018-09-02T19:28:18.894Z,101477.63
2018-09-02T19:30:47.473Z,101475.91
2018-09-02T19:33:16.103Z,101474.63
2018-09-02T19:35:44.539Z,101476.38
2018-09-02T19:38:13.703Z,101472.50
2018-09-02T19:40:42.354Z,101483.34
2018-09-02T19:43:10.964Z,101476.84
2018-09-02T19:45:39.456Z,101472.11
2018-09-02T19:48:08.067Z,101468.67
2018-09-02T19:50:36.593Z,101468.27
2018-09-02T19:53:05.227Z,101476.97
2018-09-02T19:55:33.708Z,101465.72
2018-09-02T19:58:02.209Z,101464.03
2018-09-02T20:00:30.678Z,101462.30
2018-09-02T20:03:00.687Z,101464.52
2018-09-02T20:05:29.164Z,101459.34
2018-09-02T20:07:57.596Z,101462.84
2018-09-02T20:10:26.109Z,101465.91
2018-09-02T20:12:54.542Z,101452.53
2018-09-02T20:15:23.100Z,101451.70
2018-09-02T20:17:51.461Z,101456.50
2018-09-02T20:20:19.912Z,101451.75
2018-09-02T20:22:48.369Z,101448.73
2018-09-02T20:25:16.794Z,101449.16
2018-09-02T20:27:45.265Z,101446.18
2018-09-02T20:30:13.804Z,101440.56
2018-09-02T20:32:42.290Z,101450.10
2018-09-02T20:35:10.700Z,101449.27
2018-09-02T20:37:39.161Z,101447.16
2018-09-02T20:40:07.972Z,101445.03
2018-09-02T20:42:36.494Z,101446.38
2018-09-02T20:45:05.037Z,101444.66
2018-09-02T20:47:33.492Z,101445.54
2018-09-02T20:50:01.970Z,101443.82
2018-09-02T20:52:30.380Z,101447.72
2018-09-02T20:54:58.880Z,101446.00
2018-09-02T20:57:27.365Z,101444.27
2018-09-02T20:59:55.853Z,101442.57
2018-09-02T21:02:24.410Z,101440.00
2018-09-02T21:04:52.770Z,101445.66
2018-09-02T21:07:21.238Z,101446.13
2018-09-02T21:09:49.674Z,101445.70
2018-09-02T21:12:18.208Z,101443.16
2018-09-02T21:14:46.760Z,101442.70
2018-09-02T21:17:15.516Z,101442.29
2018-09-02T21:19:43.949Z,101442.30
2018-09-02T21:22:12.350Z,101444.45
2018-09-02T21:24:43.725Z,101447.90
2018-09-02T21:27:12.141Z,101445.35
2018-09-02T21:29:40.638Z,101447.95
2018-09-02T21:32:09.048Z,101444.94
2018-09-02T21:34:37.461Z,101441.04
2018-09-02T21:37:05.968Z,101444.94
2018-09-02T21:39:35.028Z,101439.81
2018-09-02T21:42:03.478Z,101435.48
2018-09-02T21:44:32.130Z,101435.91
2018-09-02T21:47:00.619Z,101433.34
2018-09-02T21:49:29.008Z,101433.36
2018-09-02T21:51:58.179Z,101427.80
2018-09-02T21:54:27.188Z,101429.53
2018-09-02T21:56:55.617Z,101431.68
2018-09-02T21:59:24.080Z,101425.19
2018-09-02T22:01:52.528Z,101425.22
2018-09-02T22:04:20.907Z,101423.08
2018-09-02T22:06:49.322Z,101421.39
2018-09-02T22:09:18.175Z,101420.52
2018-09-02T22:11:46.662Z,101417.08
2018-09-02T22:14:15.113Z,101415.39
2018-09-02T22:16:44.095Z,101414.53
2018-09-02T22:19:12.791Z,101415.41
2018-09-02T22:21:41.270Z,101415.84
2018-09-02T22:24:09.683Z,101415.02
2018-09-02T22:26:38.097Z,101413.73
2018-09-02T22:29:06.533Z,101414.59
2018-09-02T22:31:35.030Z,101416.75
2018-09-02T22:34:04.052Z,101414.16
2018-09-02T22:36:32.497Z,101405.95
2018-09-02T22:39:01.233Z,101402.48
2018-09-02T22:41:29.725Z,101405.07
2018-09-02T22:43:58.225Z,101401.62
2018-09-02T22:46:26.631Z,101399.02
2018-09-02T22:48:55.070Z,101395.56
2018-09-02T22:51:23.516Z,101396.89
2018-09-02T22:53:51.955Z,101395.59
2018-09-02T22:56:20.354Z,101390.45
2018-09-02T22:58:49.308Z,101391.33
2018-09-02T23:01:17.755Z,101384.42
2018-09-02T23:03:46.240Z,101384.88
2018-09-02T23:06:15.064Z,101382.28
2018-09-02T23:08:43.472Z,101384.88
2018-09-02T23:11:11.929Z,101380.57
2018-09-02T23:13:40.327Z,101380.57
2018-09-02T23:16:08.774Z,101375.41
2018-09-02T23:18:37.166Z,101370.64
2018-09-02T23:21:05.694Z,101371.96
2018-09-02T23:23:34.147Z,101366.40
2018-09-02T23:26:02.602Z,101369.89
2018-09-02T23:28:31.084Z,101355.74
2018-09-02T23:30:59.511Z,101353.58
2018-09-02T23:33:27.954Z,101353.56
2018-09-02T23:35:56.376Z,101353.61
2018-09-02T23:38:24.809Z,101352.73
2018-09-02T23:40:53.207Z,101342.81
2018-09-02T23:43:22.657Z,101342.83
2018-09-02T23:45:51.121Z,101336.86
2018-09-02T23:48:19.576Z,101340.77
2018-09-02T23:50:48.016Z,101335.59
2018-09-02T23:53:16.468Z,101243.70
2018-09-02T23:55:44.866Z,101331.73
2018-09-02T23:58:13.318Z,101324.38
